WXM80 ListenWXM80 Stop

You find our weather info also at:

UK Metoffice

WeatherCloud

Weather Underground

Northeastern Weather Network

AWEKAS

Citizen Weather Observer Program (CWOP)

HAMweather, WeatherForYou, PWS Weather


Weather Underground History page Text

Daily Summary for February 3, 2017 Units:  Both    English   Metric
« Previous Day
Next Day »
Daily Weekly Monthly Yearly Custom
  High: Low: Average:
Temperature: 33.1 °F /  0.6 °C 26.4 °F /  -3.1 °C 30.4 °F /  -0.9 °C
Dew Point: 19.7 °F /  -6.8 °C 12.5 °F /  -10.8 °C 15.9 °F /  -8.9 °C
Humidity: 61 % 48 % 55 %
Wind Speed: 12.6 mph /  20.3 km/h - 4.7 mph /  7.6 km/h
Wind Gust: 25.3 mph /  40.7 km/h - -
Wind:- - WNW
Pressure: 30.22 in /  1023.2 hPa 30.06 in /  1017.8 hPa -
Precipitation: 0.00 in /  0 mm    
Historical Graphs
 
 
Tabular Data for February 3, 2017
Time Temperature Dew Point Pressure Wind Wind Speed Wind Gust Humidity Rainfall Rate (Hourly)
00:01 32.1 °F /  0.1 °C 19.0 °F /  -7.2 °C 30.16 in /  1021.2 hPa WNW 6.1 mph /  9.8 km/h 11.0 mph /  17.7 km/h 58 % 0.00 in /  0 mm
00:06 32.0 °F /  0 °C 19.3 °F /  -7.1 °C 30.15 in /  1020.9 hPa West 4.2 mph /  6.8 km/h 6.9 mph /  11.1 km/h 59 % 0.00 in /  0 mm
00:11 32.0 °F /  0 °C 19.7 °F /  -6.8 °C 30.16 in /  1021.2 hPa WNW 4.4 mph /  7.1 km/h 9.2 mph /  14.8 km/h 60 % 0.00 in /  0 mm
00:16 31.9 °F /  -0.1 °C 19.2 °F /  -7.1 °C 30.16 in /  1021.2 hPa WNW 4.8 mph /  7.7 km/h 9.2 mph /  14.8 km/h 59 % 0.00 in /  0 mm
00:21 31.9 °F /  -0.1 °C 19.2 °F /  -7.1 °C 30.16 in /  1021.2 hPa WNW 3.2 mph /  5.1 km/h 10.4 mph /  16.7 km/h 59 % 0.00 in /  0 mm
00:26 31.8 °F /  -0.1 °C 18.7 °F /  -7.4 °C 30.16 in /  1021.2 hPa West 5.6 mph /  9 km/h 9.2 mph /  14.8 km/h 58 % 0.00 in /  0 mm
00:31 31.8 °F /  -0.1 °C 18.7 °F /  -7.4 °C 30.16 in /  1021.2 hPa WNW 5.3 mph /  8.5 km/h 10.4 mph /  16.7 km/h 58 % 0.00 in /  0 mm
00:36 31.7 °F /  -0.2 °C 18.6 °F /  -7.4 °C 30.16 in /  1021.2 hPa WNW 5.9 mph /  9.5 km/h 11.5 mph /  18.5 km/h 58 % 0.00 in /  0 mm
00:41 31.7 °F /  -0.2 °C 18.2 °F /  -7.7 °C 30.16 in /  1021.2 hPa NW 5.6 mph /  9 km/h 9.2 mph /  14.8 km/h 57 % 0.00 in /  0 mm
00:42 31.7 °F /  -0.2 °C 18.2 °F /  -7.7 °C 30.16 in /  1021.2 hPa North 5.7 mph /  9.2 km/h 9.2 mph /  14.8 km/h 57 % 0.00 in /  0 mm
00:47 31.6 °F /  -0.2 °C 17.7 °F /  -7.9 °C 30.17 in /  1021.6 hPa WNW 4.4 mph /  7.1 km/h 5.8 mph /  9.3 km/h 56 % 0.00 in /  0 mm
00:52 31.5 °F /  -0.3 °C 17.6 °F /  -8 °C 30.17 in /  1021.6 hPa NNW 3.3 mph /  5.3 km/h 10.4 mph /  16.7 km/h 56 % 0.00 in /  0 mm
00:57 31.5 °F /  -0.3 °C 17.6 °F /  -8 °C 30.17 in /  1021.6 hPa WNW 4.6 mph /  7.4 km/h 9.2 mph /  14.8 km/h 56 % 0.00 in /  0 mm
01:02 31.5 °F /  -0.3 °C 18.0 °F /  -7.8 °C 30.16 in /  1021.2 hPa WNW 3.4 mph /  5.5 km/h 6.9 mph /  11.1 km/h 57 % 0.00 in /  0 mm
01:07 31.4 °F /  -0.3 °C 18.3 °F /  -7.6 °C 30.16 in /  1021.2 hPa NNW 7.0 mph /  11.3 km/h 7.0 mph /  11.3 km/h 58 % 0.00 in /  0 mm
01:12 31.4 °F /  -0.3 °C 17.9 °F /  -7.8 °C 30.17 in /  1021.6 hPa WSW 5.9 mph /  9.5 km/h 10.4 mph /  16.7 km/h 57 % 0.00 in /  0 mm
01:17 31.3 °F /  -0.4 °C 17.8 °F /  -7.9 °C 30.17 in /  1021.6 hPa WNW 3.0 mph /  4.8 km/h 6.0 mph /  9.7 km/h 57 % 0.00 in /  0 mm
01:22 31.2 °F /  -0.4 °C 17.3 °F /  -8.2 °C 30.17 in /  1021.6 hPa WNW 4.8 mph /  7.7 km/h 17.3 mph /  27.8 km/h 56 % 0.00 in /  0 mm
01:27 31.2 °F /  -0.4 °C 17.7 °F /  -7.9 °C 30.17 in /  1021.6 hPa NW 8.5 mph /  13.7 km/h 13.8 mph /  22.2 km/h 57 % 0.00 in /  0 mm
01:32 31.2 °F /  -0.4 °C 17.3 °F /  -8.2 °C 30.17 in /  1021.6 hPa West 3.7 mph /  6 km/h 10.4 mph /  16.7 km/h 56 % 0.00 in /  0 mm
01:37 31.1 °F /  -0.5 °C 17.2 °F /  -8.2 °C 30.17 in /  1021.6 hPa NW 4.8 mph /  7.7 km/h 13.8 mph /  22.2 km/h 56 % 0.00 in /  0 mm
01:42 31.1 °F /  -0.5 °C 16.8 °F /  -8.4 °C 30.17 in /  1021.6 hPa WNW 6.9 mph /  11.1 km/h 12.7 mph /  20.4 km/h 55 % 0.00 in /  0 mm
01:47 31.0 °F /  -0.6 °C 16.3 °F /  -8.7 °C 30.17 in /  1021.6 hPa West 8.3 mph /  13.4 km/h 11.5 mph /  18.5 km/h 54 % 0.00 in /  0 mm
01:52 30.9 °F /  -0.6 °C 16.6 °F /  -8.6 °C 30.17 in /  1021.6 hPa NW 2.7 mph /  4.3 km/h 9.2 mph /  14.8 km/h 55 % 0.00 in /  0 mm
01:57 30.8 °F /  -0.7 °C 16.5 °F /  -8.6 °C 30.18 in /  1021.9 hPa WNW 5.3 mph /  8.5 km/h 11.5 mph /  18.5 km/h 55 % 0.00 in /  0 mm
02:03 30.7 °F /  -0.7 °C 16.8 °F /  -8.4 °C 30.18 in /  1021.9 hPa NW 6.3 mph /  10.1 km/h 11.5 mph /  18.5 km/h 56 % 0.00 in /  0 mm
02:08 30.6 °F /  -0.8 °C 16.7 °F /  -8.5 °C 30.18 in /  1021.9 hPa WNW 5.3 mph /  8.5 km/h 9.2 mph /  14.8 km/h 56 % 0.00 in /  0 mm
02:13 30.5 °F /  -0.8 °C 16.7 °F /  -8.5 °C 30.18 in /  1021.9 hPa WNW 5.5 mph /  8.9 km/h 8.1 mph /  13 km/h 56 % 0.00 in /  0 mm
02:18 30.4 °F /  -0.9 °C 16.6 °F /  -8.6 °C 30.18 in /  1021.9 hPa NW 5.0 mph /  8 km/h 11.5 mph /  18.5 km/h 56 % 0.00 in /  0 mm
02:23 30.4 °F /  -0.9 °C 17.0 °F /  -8.3 °C 30.18 in /  1021.9 hPa NW 5.9 mph /  9.5 km/h 12.7 mph /  20.4 km/h 57 % 0.00 in /  0 mm
02:28 30.3 °F /  -0.9 °C 16.5 °F /  -8.6 °C 30.17 in /  1021.6 hPa NNW 3.9 mph /  6.3 km/h 10.4 mph /  16.7 km/h 56 % 0.00 in /  0 mm
02:33 30.2 °F /  -1 °C 16.4 °F /  -8.7 °C 30.18 in /  1021.9 hPa WNW 3.3 mph /  5.3 km/h 10.4 mph /  16.7 km/h 56 % 0.00 in /  0 mm
02:38 30.2 °F /  -1 °C 17.2 °F /  -8.2 °C 30.18 in /  1021.9 hPa WNW 4.5 mph /  7.2 km/h 6.9 mph /  11.1 km/h 58 % 0.00 in /  0 mm
02:43 30.1 °F /  -1.1 °C 18.3 °F /  -7.6 °C 30.18 in /  1021.9 hPa NW 3.3 mph /  5.3 km/h 6.9 mph /  11.1 km/h 61 % 0.00 in /  0 mm
02:48 30.0 °F /  -1.1 °C 17.8 °F /  -7.9 °C 30.18 in /  1021.9 hPa NNW 3.1 mph /  5 km/h 4.6 mph /  7.4 km/h 60 % 0.00 in /  0 mm
02:53 29.8 °F /  -1.2 °C 18.0 °F /  -7.8 °C 30.17 in /  1021.6 hPa North 5.5 mph /  8.9 km/h 13.8 mph /  22.2 km/h 61 % 0.00 in /  0 mm
02:58 29.8 °F /  -1.2 °C 17.6 °F /  -8 °C 30.18 in /  1021.9 hPa NW 4.0 mph /  6.4 km/h 8.0 mph /  12.9 km/h 60 % 0.00 in /  0 mm
03:03 29.7 °F /  -1.3 °C 17.5 °F /  -8.1 °C 30.18 in /  1021.9 hPa NNW 3.8 mph /  6.1 km/h 4.6 mph /  7.4 km/h 60 % 0.00 in /  0 mm
03:08 29.6 °F /  -1.3 °C 17.4 °F /  -8.1 °C 30.18 in /  1021.9 hPa NW 5.2 mph /  8.4 km/h 11.5 mph /  18.5 km/h 60 % 0.00 in /  0 mm
03:13 29.4 °F /  -1.4 °C 17.2 °F /  -8.2 °C 30.18 in /  1021.9 hPa NNW 5.6 mph /  9 km/h 9.2 mph /  14.8 km/h 60 % 0.00 in /  0 mm
03:18 29.4 °F /  -1.4 °C 17.2 °F /  -8.2 °C 30.18 in /  1021.9 hPa WNW 6.1 mph /  9.8 km/h 11.0 mph /  17.7 km/h 60 % 0.00 in /  0 mm
03:23 29.3 °F /  -1.5 °C 17.1 °F /  -8.3 °C 30.18 in /  1021.9 hPa NNW 4.7 mph /  7.6 km/h 12.7 mph /  20.4 km/h 60 % 0.00 in /  0 mm
03:28 29.2 °F /  -1.6 °C 17.0 °F /  -8.3 °C 30.18 in /  1021.9 hPa NW 6.5 mph /  10.5 km/h 11.5 mph /  18.5 km/h 60 % 0.00 in /  0 mm
03:33 29.1 °F /  -1.6 °C 16.9 °F /  -8.4 °C 30.17 in /  1021.6 hPa WNW 5.4 mph /  8.7 km/h 12.0 mph /  19.3 km/h 60 % 0.00 in /  0 mm
03:38 29.0 °F /  -1.7 °C 16.8 °F /  -8.4 °C 30.17 in /  1021.6 hPa North 8.9 mph /  14.3 km/h 15.0 mph /  24.1 km/h 60 % 0.00 in /  0 mm
03:43 28.9 °F /  -1.7 °C 16.7 °F /  -8.5 °C 30.17 in /  1021.6 hPa NW 6.4 mph /  10.3 km/h 9.2 mph /  14.8 km/h 60 % 0.00 in /  0 mm
03:48 28.8 °F /  -1.8 °C 16.3 °F /  -8.7 °C 30.17 in /  1021.6 hPa NNW 6.3 mph /  10.1 km/h 11.5 mph /  18.5 km/h 59 % 0.00 in /  0 mm
03:53 28.7 °F /  -1.8 °C 15.8 °F /  -9 °C 30.17 in /  1021.6 hPa West 7.9 mph /  12.7 km/h 18.4 mph /  29.6 km/h 58 % 0.00 in /  0 mm
03:58 28.6 °F /  -1.9 °C 16.1 °F /  -8.8 °C 30.17 in /  1021.6 hPa WNW 7.9 mph /  12.7 km/h 17.3 mph /  27.8 km/h 59 % 0.00 in /  0 mm
04:03 28.5 °F /  -1.9 °C 15.6 °F /  -9.1 °C 30.17 in /  1021.6 hPa NW 6.0 mph /  9.7 km/h 17.0 mph /  27.4 km/h 58 % 0.00 in /  0 mm
04:08 28.4 °F /  -2 °C 15.5 °F /  -9.2 °C 30.18 in /  1021.9 hPa NW 6.0 mph /  9.7 km/h 12.0 mph /  19.3 km/h 58 % 0.00 in /  0 mm
04:13 28.3 °F /  -2.1 °C 15.4 °F /  -9.2 °C 30.18 in /  1021.9 hPa WNW 7.0 mph /  11.3 km/h 14.0 mph /  22.5 km/h 58 % 0.00 in /  0 mm
04:18 28.2 °F /  -2.1 °C 14.9 °F /  -9.5 °C 30.18 in /  1021.9 hPa WNW 6.4 mph /  10.3 km/h 11.5 mph /  18.5 km/h 57 % 0.00 in /  0 mm
04:23 28.1 °F /  -2.2 °C 14.8 °F /  -9.6 °C 30.18 in /  1021.9 hPa WNW 3.0 mph /  4.8 km/h 12.0 mph /  19.3 km/h 57 % 0.00 in /  0 mm
04:28 28.0 °F /  -2.2 °C 15.1 °F /  -9.4 °C 30.18 in /  1021.9 hPa NW 6.0 mph /  9.7 km/h 13.0 mph /  20.9 km/h 58 % 0.00 in /  0 mm
04:33 28.0 °F /  -2.2 °C 15.5 °F /  -9.2 °C 30.18 in /  1021.9 hPa NW 6.0 mph /  9.7 km/h 15.0 mph /  24.1 km/h 59 % 0.00 in /  0 mm
04:38 27.9 °F /  -2.3 °C 15.0 °F /  -9.4 °C 30.18 in /  1021.9 hPa NW 5.0 mph /  8 km/h 12.0 mph /  19.3 km/h 58 % 0.00 in /  0 mm
04:43 27.9 °F /  -2.3 °C 15.4 °F /  -9.2 °C 30.18 in /  1021.9 hPa NW 6.0 mph /  9.7 km/h 9.0 mph /  14.5 km/h 59 % 0.00 in /  0 mm
04:48 27.8 °F /  -2.3 °C 14.9 °F /  -9.5 °C 30.18 in /  1021.9 hPa NW 3.0 mph /  4.8 km/h 12.0 mph /  19.3 km/h 58 % 0.00 in /  0 mm
04:53 27.7 °F /  -2.4 °C 14.9 °F /  -9.5 °C 30.18 in /  1021.9 hPa NW 6.0 mph /  9.7 km/h 12.0 mph /  19.3 km/h 58 % 0.00 in /  0 mm
04:58 27.6 °F /  -2.4 °C 15.1 °F /  -9.4 °C 30.18 in /  1021.9 hPa NW 7.3 mph /  11.7 km/h 10.4 mph /  16.7 km/h 59 % 0.00 in /  0 mm
05:03 27.6 °F /  -2.4 °C 14.7 °F /  -9.6 °C 30.18 in /  1021.9 hPa NW 7.0 mph /  11.3 km/h 13.0 mph /  20.9 km/h 58 % 0.00 in /  0 mm
05:08 27.5 °F /  -2.5 °C 14.6 °F /  -9.7 °C 30.18 in /  1021.9 hPa WNW 6.0 mph /  9.7 km/h 10.0 mph /  16.1 km/h 58 % 0.00 in /  0 mm
05:13 27.4 °F /  -2.6 °C 14.5 °F /  -9.7 °C 30.18 in /  1021.9 hPa NW 5.0 mph /  8 km/h 14.0 mph /  22.5 km/h 58 % 0.00 in /  0 mm
05:18 27.3 °F /  -2.6 °C 14.5 °F /  -9.7 °C 30.18 in /  1021.9 hPa NW 5.0 mph /  8 km/h 10.0 mph /  16.1 km/h 58 % 0.00 in /  0 mm
05:23 27.3 °F /  -2.6 °C 14.4 °F /  -9.8 °C 30.19 in /  1022.2 hPa NW 5.0 mph /  8 km/h 10.0 mph /  16.1 km/h 58 % 0.00 in /  0 mm
05:28 27.2 °F /  -2.7 °C 14.4 °F /  -9.8 °C 30.19 in /  1022.2 hPa NW 3.0 mph /  4.8 km/h 9.0 mph /  14.5 km/h 58 % 0.00 in /  0 mm
05:33 27.1 °F /  -2.7 °C 14.3 °F /  -9.8 °C 30.19 in /  1022.2 hPa WNW 4.2 mph /  6.8 km/h 10.4 mph /  16.7 km/h 58 % 0.00 in /  0 mm
05:38 27.1 °F /  -2.7 °C 14.3 °F /  -9.8 °C 30.19 in /  1022.2 hPa WNW 6.0 mph /  9.7 km/h 9.0 mph /  14.5 km/h 58 % 0.00 in /  0 mm
05:43 27.0 °F /  -2.8 °C 14.2 °F /  -9.9 °C 30.19 in /  1022.2 hPa WNW 6.0 mph /  9.7 km/h 12.0 mph /  19.3 km/h 58 % 0.00 in /  0 mm
05:48 27.0 °F /  -2.8 °C 14.2 °F /  -9.9 °C 30.19 in /  1022.2 hPa WNW 7.0 mph /  11.3 km/h 12.0 mph /  19.3 km/h 58 % 0.00 in /  0 mm
05:53 27.0 °F /  -2.8 °C 14.2 °F /  -9.9 °C 30.19 in /  1022.2 hPa WNW 4.0 mph /  6.4 km/h 6.9 mph /  11.1 km/h 58 % 0.00 in /  0 mm
05:58 26.9 °F /  -2.8 °C 14.1 °F /  -9.9 °C 30.19 in /  1022.2 hPa NW 6.5 mph /  10.5 km/h 9.2 mph /  14.8 km/h 58 % 0.00 in /  0 mm
06:03 26.9 °F /  -2.8 °C 14.1 °F /  -9.9 °C 30.18 in /  1021.9 hPa WNW 5.0 mph /  8 km/h 12.0 mph /  19.3 km/h 58 % 0.00 in /  0 mm
06:08 26.8 °F /  -2.9 °C 14.4 °F /  -9.8 °C 30.18 in /  1021.9 hPa WNW 7.0 mph /  11.3 km/h 12.0 mph /  19.3 km/h 59 % 0.00 in /  0 mm
06:13 26.8 °F /  -2.9 °C 14.0 °F /  -10 °C 30.19 in /  1022.2 hPa WNW 5.0 mph /  8 km/h 13.0 mph /  20.9 km/h 58 % 0.00 in /  0 mm
06:18 26.8 °F /  -2.9 °C 14.0 °F /  -10 °C 30.19 in /  1022.2 hPa WNW 3.0 mph /  4.8 km/h 7.0 mph /  11.3 km/h 58 % 0.00 in /  0 mm
06:23 26.7 °F /  -2.9 °C 14.3 °F /  -9.8 °C 30.19 in /  1022.2 hPa WNW 6.0 mph /  9.7 km/h 14.0 mph /  22.5 km/h 59 % 0.00 in /  0 mm
06:28 26.7 °F /  -2.9 °C 14.3 °F /  -9.8 °C 30.20 in /  1022.6 hPa WNW 3.0 mph /  4.8 km/h 12.0 mph /  19.3 km/h 59 % 0.00 in /  0 mm
06:33 26.6 °F /  -3 °C 14.2 °F /  -9.9 °C 30.20 in /  1022.6 hPa WNW 2.5 mph /  4 km/h 7.0 mph /  11.3 km/h 59 % 0.00 in /  0 mm
06:38 26.6 °F /  -3 °C 14.6 °F /  -9.7 °C 30.20 in /  1022.6 hPa NW 2.0 mph /  3.2 km/h 9.0 mph /  14.5 km/h 60 % 0.00 in /  0 mm
06:43 26.5 °F /  -3.1 °C 14.5 °F /  -9.7 °C 30.20 in /  1022.6 hPa NW 5.0 mph /  8 km/h 13.0 mph /  20.9 km/h 60 % 0.00 in /  0 mm
06:48 26.5 °F /  -3.1 °C 14.1 °F /  -9.9 °C 30.20 in /  1022.6 hPa NW 3.0 mph /  4.8 km/h 9.0 mph /  14.5 km/h 59 % 0.00 in /  0 mm
06:53 26.5 °F /  -3.1 °C 14.5 °F /  -9.7 °C 30.20 in /  1022.6 hPa NW 3.7 mph /  6 km/h 6.9 mph /  11.1 km/h 60 % 0.00 in /  0 mm
06:58 26.4 °F /  -3.1 °C 14.0 °F /  -10 °C 30.20 in /  1022.6 hPa NNW 3.2 mph /  5.1 km/h 11.5 mph /  18.5 km/h 59 % 0.00 in /  0 mm
07:03 26.4 °F /  -3.1 °C 14.4 °F /  -9.8 °C 30.19 in /  1022.2 hPa NW 2.0 mph /  3.2 km/h 12.0 mph /  19.3 km/h 60 % 0.00 in /  0 mm
07:08 26.4 °F /  -3.1 °C 14.4 °F /  -9.8 °C 30.19 in /  1022.2 hPa NW 3.0 mph /  4.8 km/h 10.0 mph /  16.1 km/h 60 % 0.00 in /  0 mm
07:13 26.4 °F /  -3.1 °C 14.0 °F /  -10 °C 30.20 in /  1022.6 hPa NNW 3.3 mph /  5.3 km/h 6.9 mph /  11.1 km/h 59 % 0.00 in /  0 mm
07:18 26.4 °F /  -3.1 °C 14.4 °F /  -9.8 °C 30.20 in /  1022.6 hPa NW 2.0 mph /  3.2 km/h 6.0 mph /  9.7 km/h 60 % 0.00 in /  0 mm
07:23 26.5 °F /  -3.1 °C 14.5 °F /  -9.7 °C 30.20 in /  1022.6 hPa NW 2.0 mph /  3.2 km/h 6.0 mph /  9.7 km/h 60 % 0.00 in /  0 mm
07:28 26.5 °F /  -3.1 °C 14.1 °F /  -9.9 °C 30.20 in /  1022.6 hPa NW 5.0 mph /  8 km/h 12.0 mph /  19.3 km/h 59 % 0.00 in /  0 mm
07:33 26.6 °F /  -3 °C 14.2 °F /  -9.9 °C 30.21 in /  1022.9 hPa WNW 3.4 mph /  5.5 km/h 8.1 mph /  13 km/h 59 % 0.00 in /  0 mm
07:38 26.6 °F /  -3 °C 14.2 °F /  -9.9 °C 30.20 in /  1022.6 hPa NW 3.0 mph /  4.8 km/h 5.0 mph /  8 km/h 59 % 0.00 in /  0 mm
07:43 26.7 °F /  -2.9 °C 14.3 °F /  -9.8 °C 30.20 in /  1022.6 hPa WNW 3.0 mph /  4.8 km/h 10.0 mph /  16.1 km/h 59 % 0.00 in /  0 mm
07:48 26.7 °F /  -2.9 °C 14.3 °F /  -9.8 °C 30.20 in /  1022.6 hPa NW 2.0 mph /  3.2 km/h 8.0 mph /  12.9 km/h 59 % 0.00 in /  0 mm
07:53 26.8 °F /  -2.9 °C 14.4 °F /  -9.8 °C 30.20 in /  1022.6 hPa WNW 3.0 mph /  4.8 km/h 5.0 mph /  8 km/h 59 % 0.00 in /  0 mm
07:58 26.9 °F /  -2.8 °C 14.9 °F /  -9.5 °C 30.21 in /  1022.9 hPa WNW 2.8 mph /  4.5 km/h 5.8 mph /  9.3 km/h 60 % 0.00 in /  0 mm
08:03 27.0 °F /  -2.8 °C 15.3 °F /  -9.3 °C 30.20 in /  1022.6 hPa NW 3.0 mph /  4.8 km/h 9.0 mph /  14.5 km/h 61 % 0.00 in /  0 mm
08:08 27.1 °F /  -2.7 °C 14.7 °F /  -9.6 °C 30.20 in /  1022.6 hPa NW 2.0 mph /  3.2 km/h 7.0 mph /  11.3 km/h 59 % 0.00 in /  0 mm
08:13 27.2 °F /  -2.7 °C 14.4 °F /  -9.8 °C 30.20 in /  1022.6 hPa WNW 3.2 mph /  5.1 km/h 6.9 mph /  11.1 km/h 58 % 0.00 in /  0 mm
08:18 27.3 °F /  -2.6 °C 14.9 °F /  -9.5 °C 30.21 in /  1022.9 hPa NW 2.0 mph /  3.2 km/h 8.0 mph /  12.9 km/h 59 % 0.00 in /  0 mm
08:23 27.5 °F /  -2.5 °C 15.0 °F /  -9.4 °C 30.21 in /  1022.9 hPa WNW 5.8 mph /  9.3 km/h 6.9 mph /  11.1 km/h 59 % 0.00 in /  0 mm
08:28 27.6 °F /  -2.4 °C 15.1 °F /  -9.4 °C 30.21 in /  1022.9 hPa NW 1.0 mph /  1.6 km/h 6.0 mph /  9.7 km/h 59 % 0.00 in /  0 mm
08:33 27.8 °F /  -2.3 °C 15.3 °F /  -9.3 °C 30.21 in /  1022.9 hPa NW 2.9 mph /  4.7 km/h 6.9 mph /  11.1 km/h 59 % 0.00 in /  0 mm
08:38 27.9 °F /  -2.3 °C 15.0 °F /  -9.4 °C 30.21 in /  1022.9 hPa WNW 5.0 mph /  8 km/h 8.0 mph /  12.9 km/h 58 % 0.00 in /  0 mm
08:43 28.0 °F /  -2.2 °C 15.1 °F /  -9.4 °C 30.21 in /  1022.9 hPa WNW 2.0 mph /  3.2 km/h 7.0 mph /  11.3 km/h 58 % 0.00 in /  0 mm
08:48 28.2 °F /  -2.1 °C 15.3 °F /  -9.3 °C 30.22 in /  1023.2 hPa NW 2.0 mph /  3.2 km/h 8.0 mph /  12.9 km/h 58 % 0.00 in /  0 mm
08:53 28.4 °F /  -2 °C 15.1 °F /  -9.4 °C 30.22 in /  1023.2 hPa West 4.9 mph /  7.9 km/h 5.8 mph /  9.3 km/h 57 % 0.00 in /  0 mm
08:58 28.5 °F /  -1.9 °C 15.2 °F /  -9.3 °C 30.22 in /  1023.2 hPa WNW 4.5 mph /  7.2 km/h 4.5 mph /  7.2 km/h 57 % 0.00 in /  0 mm
09:04 28.7 °F /  -1.8 °C 15.0 °F /  -9.4 °C 30.22 in /  1023.2 hPa SW 4.2 mph /  6.8 km/h 9.2 mph /  14.8 km/h 56 % 0.00 in /  0 mm
09:09 28.8 °F /  -1.8 °C 15.5 °F /  -9.2 °C 30.22 in /  1023.2 hPa WNW 5.1 mph /  8.2 km/h 8.1 mph /  13 km/h 57 % 0.00 in /  0 mm
09:14 29.0 °F /  -1.7 °C 15.2 °F /  -9.3 °C 30.22 in /  1023.2 hPa WNW 1.8 mph /  2.9 km/h 5.8 mph /  9.3 km/h 56 % 0.00 in /  0 mm
09:19 29.2 °F /  -1.6 °C 15.0 °F /  -9.4 °C 30.22 in /  1023.2 hPa WNW 6.7 mph /  10.8 km/h 11.0 mph /  17.7 km/h 55 % 0.00 in /  0 mm
09:24 29.3 °F /  -1.5 °C 14.7 °F /  -9.6 °C 30.22 in /  1023.2 hPa WNW 3.5 mph /  5.6 km/h 4.6 mph /  7.4 km/h 54 % 0.00 in /  0 mm
09:29 29.4 °F /  -1.4 °C 15.2 °F /  -9.3 °C 30.22 in /  1023.2 hPa WNW 2.3 mph /  3.7 km/h 4.6 mph /  7.4 km/h 55 % 0.00 in /  0 mm
09:34 29.5 °F /  -1.4 °C 15.3 °F /  -9.3 °C 30.22 in /  1023.2 hPa WNW 3.4 mph /  5.5 km/h 5.0 mph /  8 km/h 55 % 0.00 in /  0 mm
09:39 29.6 °F /  -1.3 °C 15.0 °F /  -9.4 °C 30.22 in /  1023.2 hPa West 6.6 mph /  10.6 km/h 9.2 mph /  14.8 km/h 54 % 0.00 in /  0 mm
09:44 29.8 °F /  -1.2 °C 15.2 °F /  -9.3 °C 30.22 in /  1023.2 hPa WSW 4.9 mph /  7.9 km/h 8.1 mph /  13 km/h 54 % 0.00 in /  0 mm
09:49 30.0 °F /  -1.1 °C 15.3 °F /  -9.3 °C 30.22 in /  1023.2 hPa WNW 4.6 mph /  7.4 km/h 9.2 mph /  14.8 km/h 54 % 0.00 in /  0 mm
09:54 30.1 °F /  -1.1 °C 15.4 °F /  -9.2 °C 30.22 in /  1023.2 hPa WNW 3.7 mph /  6 km/h 5.8 mph /  9.3 km/h 54 % 0.00 in /  0 mm
09:59 30.2 °F /  -1 °C 15.1 °F /  -9.4 °C 30.21 in /  1022.9 hPa NW 2.5 mph /  4 km/h 8.1 mph /  13 km/h 53 % 0.00 in /  0 mm
10:04 30.4 °F /  -0.9 °C 15.3 °F /  -9.3 °C 30.20 in /  1022.6 hPa NW 3.0 mph /  4.8 km/h 5.8 mph /  9.3 km/h 53 % 0.00 in /  0 mm
10:09 30.4 °F /  -0.9 °C 15.3 °F /  -9.3 °C 30.20 in /  1022.6 hPa WNW 2.2 mph /  3.5 km/h 6.9 mph /  11.1 km/h 53 % 0.00 in /  0 mm
10:14 30.5 °F /  -0.8 °C 15.4 °F /  -9.2 °C 30.20 in /  1022.6 hPa West 3.8 mph /  6.1 km/h 8.1 mph /  13 km/h 53 % 0.00 in /  0 mm
10:19 30.6 °F /  -0.8 °C 15.5 °F /  -9.2 °C 30.21 in /  1022.9 hPa WSW 1.3 mph /  2.1 km/h 3.5 mph /  5.6 km/h 53 % 0.00 in /  0 mm
10:24 30.7 °F /  -0.7 °C 16.0 °F /  -8.9 °C 30.20 in /  1022.6 hPa WNW 1.7 mph /  2.7 km/h 5.8 mph /  9.3 km/h 54 % 0.00 in /  0 mm
10:29 30.7 °F /  -0.7 °C 15.6 °F /  -9.1 °C 30.20 in /  1022.6 hPa West 4.5 mph /  7.2 km/h 5.8 mph /  9.3 km/h 53 % 0.00 in /  0 mm
10:34 30.8 °F /  -0.7 °C 15.7 °F /  -9.1 °C 30.20 in /  1022.6 hPa West 5.0 mph /  8 km/h 10.4 mph /  16.7 km/h 53 % 0.00 in /  0 mm
10:39 30.9 °F /  -0.6 °C 15.3 °F /  -9.3 °C 30.19 in /  1022.2 hPa WNW 2.6 mph /  4.2 km/h 5.8 mph /  9.3 km/h 52 % 0.00 in /  0 mm
10:44 31.3 °F /  -0.4 °C 16.6 °F /  -8.6 °C 30.19 in /  1022.2 hPa WNW 2.1 mph /  3.4 km/h 5.8 mph /  9.3 km/h 54 % 0.00 in /  0 mm
10:50 31.7 °F /  -0.2 °C 16.1 °F /  -8.8 °C 30.19 in /  1022.2 hPa WSW 5.4 mph /  8.7 km/h 6.0 mph /  9.7 km/h 52 % 0.00 in /  0 mm
10:55 31.7 °F /  -0.2 °C 16.1 °F /  -8.8 °C 30.19 in /  1022.2 hPa WSW 4.2 mph /  6.8 km/h 8.1 mph /  13 km/h 52 % 0.00 in /  0 mm
11:00 31.7 °F /  -0.2 °C 15.6 °F /  -9.1 °C 30.18 in /  1021.9 hPa NW 3.8 mph /  6.1 km/h 6.9 mph /  11.1 km/h 51 % 0.00 in /  0 mm
11:05 31.5 °F /  -0.3 °C 15.4 °F /  -9.2 °C 30.18 in /  1021.9 hPa WNW 6.9 mph /  11.1 km/h 9.2 mph /  14.8 km/h 51 % 0.00 in /  0 mm
11:10 31.3 °F /  -0.4 °C 15.7 °F /  -9.1 °C 30.18 in /  1021.9 hPa WSW 4.2 mph /  6.8 km/h 5.8 mph /  9.3 km/h 52 % 0.00 in /  0 mm
11:15 31.3 °F /  -0.4 °C 16.1 °F /  -8.8 °C 30.18 in /  1021.9 hPa WNW 2.4 mph /  3.9 km/h 7.0 mph /  11.3 km/h 53 % 0.00 in /  0 mm
11:20 31.2 °F /  -0.4 °C 16.0 °F /  -8.9 °C 30.17 in /  1021.6 hPa WSW 4.1 mph /  6.6 km/h 5.8 mph /  9.3 km/h 53 % 0.00 in /  0 mm
11:25 31.2 °F /  -0.4 °C 15.6 °F /  -9.1 °C 30.17 in /  1021.6 hPa WNW 3.6 mph /  5.8 km/h 5.8 mph /  9.3 km/h 52 % 0.00 in /  0 mm
11:30 31.1 °F /  -0.5 °C 15.5 °F /  -9.2 °C 30.17 in /  1021.6 hPa SW 4.9 mph /  7.9 km/h 11.5 mph /  18.5 km/h 52 % 0.00 in /  0 mm
11:35 31.1 °F /  -0.5 °C 15.5 °F /  -9.2 °C 30.17 in /  1021.6 hPa West 3.8 mph /  6.1 km/h 5.8 mph /  9.3 km/h 52 % 0.00 in /  0 mm
11:40 31.0 °F /  -0.6 °C 15.4 °F /  -9.2 °C 30.17 in /  1021.6 hPa SW 5.1 mph /  8.2 km/h 9.2 mph /  14.8 km/h 52 % 0.00 in /  0 mm
11:45 31.0 °F /  -0.6 °C 15.8 °F /  -9 °C 30.16 in /  1021.2 hPa West 0.8 mph /  1.3 km/h 6.0 mph /  9.7 km/h 53 % 0.00 in /  0 mm
11:50 31.2 °F /  -0.4 °C 16.0 °F /  -8.9 °C 30.16 in /  1021.2 hPa WNW 3.9 mph /  6.3 km/h 8.1 mph /  13 km/h 53 % 0.00 in /  0 mm
11:55 31.4 °F /  -0.3 °C 16.2 °F /  -8.8 °C 30.15 in /  1020.9 hPa WSW 5.2 mph /  8.4 km/h 12.0 mph /  19.3 km/h 53 % 0.00 in /  0 mm
12:00 31.4 °F /  -0.3 °C 16.2 °F /  -8.8 °C 30.15 in /  1020.9 hPa West 3.9 mph /  6.3 km/h 8.1 mph /  13 km/h 53 % 0.00 in /  0 mm
12:05 31.5 °F /  -0.3 °C 16.3 °F /  -8.7 °C 30.15 in /  1020.9 hPa SW 5.5 mph /  8.9 km/h 9.2 mph /  14.8 km/h 53 % 0.00 in /  0 mm
12:10 31.6 °F /  -0.2 °C 16.0 °F /  -8.9 °C 30.14 in /  1020.5 hPa SW 4.3 mph /  6.9 km/h 5.8 mph /  9.3 km/h 52 % 0.00 in /  0 mm
12:15 31.7 °F /  -0.2 °C 16.1 °F /  -8.8 °C 30.14 in /  1020.5 hPa West 6.5 mph /  10.5 km/h 10.4 mph /  16.7 km/h 52 % 0.00 in /  0 mm
12:20 31.7 °F /  -0.2 °C 16.5 °F /  -8.6 °C 30.14 in /  1020.5 hPa WSW 3.8 mph /  6.1 km/h 10.0 mph /  16.1 km/h 53 % 0.00 in /  0 mm
12:25 31.8 °F /  -0.1 °C 16.2 °F /  -8.8 °C 30.14 in /  1020.5 hPa SW 3.3 mph /  5.3 km/h 9.2 mph /  14.8 km/h 52 % 0.00 in /  0 mm
12:31 31.9 °F /  -0.1 °C 16.7 °F /  -8.5 °C 30.13 in /  1020.2 hPa NW 5.9 mph /  9.5 km/h 9.2 mph /  14.8 km/h 53 % 0.00 in /  0 mm
12:36 32.3 °F /  0.2 °C 16.6 °F /  -8.6 °C 30.13 in /  1020.2 hPa SW 5.3 mph /  8.5 km/h 8.1 mph /  13 km/h 52 % 0.00 in /  0 mm
12:41 32.4 °F /  0.2 °C 15.8 °F /  -9 °C 30.12 in /  1019.9 hPa WNW 4.8 mph /  7.7 km/h 8.1 mph /  13 km/h 50 % 0.00 in /  0 mm
12:46 32.4 °F /  0.2 °C 16.3 °F /  -8.7 °C 30.12 in /  1019.9 hPa WNW 5.4 mph /  8.7 km/h 8.1 mph /  13 km/h 51 % 0.00 in /  0 mm
12:51 32.4 °F /  0.2 °C 15.8 °F /  -9 °C 30.12 in /  1019.9 hPa WNW 6.1 mph /  9.8 km/h 9.2 mph /  14.8 km/h 50 % 0.00 in /  0 mm
12:56 32.3 °F /  0.2 °C 15.7 °F /  -9.1 °C 30.11 in /  1019.5 hPa NW 3.5 mph /  5.6 km/h 6.9 mph /  11.1 km/h 50 % 0.00 in /  0 mm
13:01 32.3 °F /  0.2 °C 15.7 °F /  -9.1 °C 30.11 in /  1019.5 hPa West 4.1 mph /  6.6 km/h 5.0 mph /  8 km/h 50 % 0.00 in /  0 mm
13:06 32.3 °F /  0.2 °C 16.2 °F /  -8.8 °C 30.11 in /  1019.5 hPa WNW 5.0 mph /  8 km/h 9.2 mph /  14.8 km/h 51 % 0.00 in /  0 mm
13:11 32.2 °F /  0.1 °C 15.6 °F /  -9.1 °C 30.11 in /  1019.5 hPa WNW 6.1 mph /  9.8 km/h 10.4 mph /  16.7 km/h 50 % 0.00 in /  0 mm
13:16 32.1 °F /  0.1 °C 15.5 °F /  -9.2 °C 30.10 in /  1019.2 hPa WNW 4.4 mph /  7.1 km/h 5.8 mph /  9.3 km/h 50 % 0.00 in /  0 mm
13:21 32.1 °F /  0.1 °C 15.5 °F /  -9.2 °C 30.10 in /  1019.2 hPa West 5.5 mph /  8.9 km/h 9.2 mph /  14.8 km/h 50 % 0.00 in /  0 mm
13:26 32.3 °F /  0.2 °C 16.2 °F /  -8.8 °C 30.09 in /  1018.8 hPa SW 4.7 mph /  7.6 km/h 7.0 mph /  11.3 km/h 51 % 0.00 in /  0 mm
13:31 32.4 °F /  0.2 °C 15.8 °F /  -9 °C 30.09 in /  1018.8 hPa WSW 7.1 mph /  11.4 km/h 8.1 mph /  13 km/h 50 % 0.00 in /  0 mm
13:36 32.4 °F /  0.2 °C 16.3 °F /  -8.7 °C 30.09 in /  1018.8 hPa WNW 2.8 mph /  4.5 km/h 7.0 mph /  11.3 km/h 51 % 0.00 in /  0 mm
13:41 32.5 °F /  0.3 °C 16.4 °F /  -8.7 °C 30.09 in /  1018.8 hPa West 5.4 mph /  8.7 km/h 9.2 mph /  14.8 km/h 51 % 0.00 in /  0 mm
13:46 32.6 °F /  0.3 °C 16.4 °F /  -8.7 °C 30.09 in /  1018.8 hPa WSW 5.8 mph /  9.3 km/h 8.0 mph /  12.9 km/h 51 % 0.00 in /  0 mm
13:51 32.6 °F /  0.3 °C 16.4 °F /  -8.7 °C 30.09 in /  1018.8 hPa WSW 4.7 mph /  7.6 km/h 7.0 mph /  11.3 km/h 51 % 0.00 in /  0 mm
13:56 32.9 °F /  0.5 °C 16.3 °F /  -8.7 °C 30.08 in /  1018.5 hPa SW 5.8 mph /  9.3 km/h 8.1 mph /  13 km/h 50 % 0.00 in /  0 mm
14:01 33.0 °F /  0.6 °C 16.4 °F /  -8.7 °C 30.08 in /  1018.5 hPa WSW 5.0 mph /  8 km/h 9.2 mph /  14.8 km/h 50 % 0.00 in /  0 mm
14:06 32.9 °F /  0.5 °C 15.8 °F /  -9 °C 30.08 in /  1018.5 hPa SW 7.2 mph /  11.6 km/h 9.2 mph /  14.8 km/h 49 % 0.00 in /  0 mm
14:11 32.6 °F /  0.3 °C 16.0 °F /  -8.9 °C 30.08 in /  1018.5 hPa SSW 5.2 mph /  8.4 km/h 11.5 mph /  18.5 km/h 50 % 0.00 in /  0 mm
14:16 32.7 °F /  0.4 °C 16.5 °F /  -8.6 °C 30.08 in /  1018.5 hPa SW 4.6 mph /  7.4 km/h 8.1 mph /  13 km/h 51 % 0.00 in /  0 mm
14:17 32.7 °F /  0.4 °C 16.5 °F /  -8.6 °C 30.08 in /  1018.5 hPa South 4.5 mph /  7.2 km/h 9.0 mph /  14.5 km/h 51 % 0.00 in /  0 mm
14:22 32.7 °F /  0.4 °C 17.0 °F /  -8.3 °C 30.08 in /  1018.5 hPa West 2.0 mph /  3.2 km/h 6.9 mph /  11.1 km/h 52 % 0.00 in /  0 mm
14:27 32.9 °F /  0.5 °C 16.7 °F /  -8.5 °C 30.07 in /  1018.2 hPa West 5.9 mph /  9.5 km/h 8.1 mph /  13 km/h 51 % 0.00 in /  0 mm
14:32 33.0 °F /  0.6 °C 16.8 °F /  -8.4 °C 30.07 in /  1018.2 hPa WSW 3.9 mph /  6.3 km/h 5.8 mph /  9.3 km/h 51 % 0.00 in /  0 mm
14:37 33.1 °F /  0.6 °C 16.5 °F /  -8.6 °C 30.07 in /  1018.2 hPa West 3.4 mph /  5.5 km/h 6.9 mph /  11.1 km/h 50 % 0.00 in /  0 mm
14:42 33.0 °F /  0.6 °C 16.4 °F /  -8.7 °C 30.07 in /  1018.2 hPa WSW 4.6 mph /  7.4 km/h 8.1 mph /  13 km/h 50 % 0.00 in /  0 mm
14:47 33.0 °F /  0.6 °C 16.4 °F /  -8.7 °C 30.07 in /  1018.2 hPa SW 4.0 mph /  6.4 km/h 8.1 mph /  13 km/h 50 % 0.00 in /  0 mm
14:52 32.9 °F /  0.5 °C 16.3 °F /  -8.7 °C 30.07 in /  1018.2 hPa WSW 2.5 mph /  4 km/h 4.6 mph /  7.4 km/h 50 % 0.00 in /  0 mm
14:57 32.8 °F /  0.4 °C 16.2 °F /  -8.8 °C 30.07 in /  1018.2 hPa WSW 4.9 mph /  7.9 km/h 6.9 mph /  11.1 km/h 50 % 0.00 in /  0 mm
15:02 32.8 °F /  0.4 °C 16.2 °F /  -8.8 °C 30.07 in /  1018.2 hPa WSW 3.3 mph /  5.3 km/h 6.0 mph /  9.7 km/h 50 % 0.00 in /  0 mm
15:07 32.7 °F /  0.4 °C 16.1 °F /  -8.8 °C 30.07 in /  1018.2 hPa West 6.8 mph /  10.9 km/h 8.1 mph /  13 km/h 50 % 0.00 in /  0 mm
15:12 32.6 °F /  0.3 °C 16.4 °F /  -8.7 °C 30.07 in /  1018.2 hPa WNW 3.5 mph /  5.6 km/h 6.9 mph /  11.1 km/h 51 % 0.00 in /  0 mm
15:17 32.6 °F /  0.3 °C 16.0 °F /  -8.9 °C 30.07 in /  1018.2 hPa WSW 4.6 mph /  7.4 km/h 9.2 mph /  14.8 km/h 50 % 0.00 in /  0 mm
15:22 32.6 °F /  0.3 °C 16.9 °F /  -8.4 °C 30.07 in /  1018.2 hPa WSW 0.9 mph /  1.4 km/h 3.5 mph /  5.6 km/h 52 % 0.00 in /  0 mm
15:27 32.6 °F /  0.3 °C 16.4 °F /  -8.7 °C 30.07 in /  1018.2 hPa SW 2.8 mph /  4.5 km/h 10.4 mph /  16.7 km/h 51 % 0.00 in /  0 mm
15:32 32.6 °F /  0.3 °C 16.4 °F /  -8.7 °C 30.07 in /  1018.2 hPa WSW 4.5 mph /  7.2 km/h 8.1 mph /  13 km/h 51 % 0.00 in /  0 mm
15:37 32.5 °F /  0.3 °C 16.4 °F /  -8.7 °C 30.07 in /  1018.2 hPa WSW 4.1 mph /  6.6 km/h 8.1 mph /  13 km/h 51 % 0.00 in /  0 mm
15:42 32.5 °F /  0.3 °C 16.4 °F /  -8.7 °C 30.06 in /  1017.8 hPa West 4.9 mph /  7.9 km/h 8.1 mph /  13 km/h 51 % 0.00 in /  0 mm
15:47 32.4 °F /  0.2 °C 16.3 °F /  -8.7 °C 30.06 in /  1017.8 hPa WNW 2.7 mph /  4.3 km/h 3.5 mph /  5.6 km/h 51 % 0.00 in /  0 mm
15:52 32.5 °F /  0.3 °C 16.4 °F /  -8.7 °C 30.06 in /  1017.8 hPa West 3.0 mph /  4.8 km/h 6.9 mph /  11.1 km/h 51 % 0.00 in /  0 mm
15:57 32.4 °F /  0.2 °C 16.3 °F /  -8.7 °C 30.06 in /  1017.8 hPa West 1.5 mph /  2.4 km/h 4.6 mph /  7.4 km/h 51 % 0.00 in /  0 mm
16:03 32.4 °F /  0.2 °C 16.7 °F /  -8.5 °C 30.06 in /  1017.8 hPa WSW 3.4 mph /  5.5 km/h 6.0 mph /  9.7 km/h 52 % 0.00 in /  0 mm
16:08 32.5 °F /  0.3 °C 16.4 °F /  -8.7 °C 30.06 in /  1017.8 hPa West 2.1 mph /  3.4 km/h 9.2 mph /  14.8 km/h 51 % 0.00 in /  0 mm
16:13 32.5 °F /  0.3 °C 16.8 °F /  -8.4 °C 30.06 in /  1017.8 hPa WNW 1.5 mph /  2.4 km/h 4.6 mph /  7.4 km/h 52 % 0.00 in /  0 mm
16:18 32.5 °F /  0.3 °C 16.8 °F /  -8.4 °C 30.06 in /  1017.8 hPa West 2.1 mph /  3.4 km/h 5.8 mph /  9.3 km/h 52 % 0.00 in /  0 mm
16:23 32.5 °F /  0.3 °C 16.4 °F /  -8.7 °C 30.06 in /  1017.8 hPa WSW 5.3 mph /  8.5 km/h 9.2 mph /  14.8 km/h 51 % 0.00 in /  0 mm
16:28 32.5 °F /  0.3 °C 15.9 °F /  -8.9 °C 30.06 in /  1017.8 hPa WNW 4.1 mph /  6.6 km/h 6.9 mph /  11.1 km/h 50 % 0.00 in /  0 mm
16:33 32.4 °F /  0.2 °C 15.3 °F /  -9.3 °C 30.06 in /  1017.8 hPa WNW 4.9 mph /  7.9 km/h 9.2 mph /  14.8 km/h 49 % 0.00 in /  0 mm
16:38 32.4 °F /  0.2 °C 15.3 °F /  -9.3 °C 30.06 in /  1017.8 hPa WNW 4.3 mph /  6.9 km/h 9.2 mph /  14.8 km/h 49 % 0.00 in /  0 mm
16:43 32.4 °F /  0.2 °C 15.8 °F /  -9 °C 30.07 in /  1018.2 hPa NNW 2.5 mph /  4 km/h 8.1 mph /  13 km/h 50 % 0.00 in /  0 mm
16:48 32.3 °F /  0.2 °C 15.3 °F /  -9.3 °C 30.07 in /  1018.2 hPa West 2.4 mph /  3.9 km/h 5.8 mph /  9.3 km/h 49 % 0.00 in /  0 mm
16:53 32.2 °F /  0.1 °C 15.6 °F /  -9.1 °C 30.06 in /  1017.8 hPa WNW 4.3 mph /  6.9 km/h 7.0 mph /  11.3 km/h 50 % 0.00 in /  0 mm
16:58 32.2 °F /  0.1 °C 15.6 °F /  -9.1 °C 30.06 in /  1017.8 hPa NW 3.8 mph /  6.1 km/h 8.1 mph /  13 km/h 50 % 0.00 in /  0 mm
17:03 32.1 °F /  0.1 °C 16.0 °F /  -8.9 °C 30.06 in /  1017.8 hPa WNW 0.9 mph /  1.4 km/h 5.8 mph /  9.3 km/h 51 % 0.00 in /  0 mm
17:08 32.1 °F /  0.1 °C 16.0 °F /  -8.9 °C 30.06 in /  1017.8 hPa WNW 5.4 mph /  8.7 km/h 8.1 mph /  13 km/h 51 % 0.00 in /  0 mm
17:13 32.1 °F /  0.1 °C 16.4 °F /  -8.7 °C 30.07 in /  1018.2 hPa WNW 3.8 mph /  6.1 km/h 6.9 mph /  11.1 km/h 52 % 0.00 in /  0 mm
17:18 32.0 °F /  0 °C 16.3 °F /  -8.7 °C 30.07 in /  1018.2 hPa WNW 3.1 mph /  5 km/h 10.0 mph /  16.1 km/h 52 % 0.00 in /  0 mm
17:23 32.0 °F /  0 °C 15.9 °F /  -8.9 °C 30.06 in /  1017.8 hPa WNW 0.6 mph /  1 km/h 2.3 mph /  3.7 km/h 51 % 0.00 in /  0 mm
17:28 32.0 °F /  0 °C 15.9 °F /  -8.9 °C 30.06 in /  1017.8 hPa West 3.6 mph /  5.8 km/h 6.0 mph /  9.7 km/h 51 % 0.00 in /  0 mm
17:33 31.9 °F /  -0.1 °C 16.2 °F /  -8.8 °C 30.07 in /  1018.2 hPa WNW 0.5 mph /  0.8 km/h 1.2 mph /  1.9 km/h 52 % 0.00 in /  0 mm
17:38 31.9 °F /  -0.1 °C 16.2 °F /  -8.8 °C 30.06 in /  1017.8 hPa WNW 0.4 mph /  0.6 km/h 3.5 mph /  5.6 km/h 52 % 0.00 in /  0 mm
17:43 31.9 °F /  -0.1 °C 16.7 °F /  -8.5 °C 30.07 in /  1018.2 hPa WNW 1.9 mph /  3.1 km/h 5.8 mph /  9.3 km/h 53 % 0.00 in /  0 mm
17:48 31.9 °F /  -0.1 °C 16.2 °F /  -8.8 °C 30.07 in /  1018.2 hPa WNW 1.1 mph /  1.8 km/h 6.9 mph /  11.1 km/h 52 % 0.00 in /  0 mm
17:53 31.8 °F /  -0.1 °C 16.6 °F /  -8.6 °C 30.07 in /  1018.2 hPa WNW 2.2 mph /  3.5 km/h 6.0 mph /  9.7 km/h 53 % 0.00 in /  0 mm
17:58 31.8 °F /  -0.1 °C 16.2 °F /  -8.8 °C 30.07 in /  1018.2 hPa WNW 2.2 mph /  3.5 km/h 8.1 mph /  13 km/h 52 % 0.00 in /  0 mm
18:03 31.9 °F /  -0.1 °C 16.2 °F /  -8.8 °C 30.07 in /  1018.2 hPa WNW 3.0 mph /  4.8 km/h 9.0 mph /  14.5 km/h 52 % 0.00 in /  0 mm
18:08 31.9 °F /  -0.1 °C 16.2 °F /  -8.8 °C 30.07 in /  1018.2 hPa WNW 3.0 mph /  4.8 km/h 12.0 mph /  19.3 km/h 52 % 0.00 in /  0 mm
18:13 31.9 °F /  -0.1 °C 16.3 °F /  -8.7 °C 30.07 in /  1018.2 hPa WNW 2.0 mph /  3.2 km/h 7.0 mph /  11.3 km/h 52 % 0.00 in /  0 mm
18:18 32.0 °F /  0 °C 16.3 °F /  -8.7 °C 30.07 in /  1018.2 hPa NW 6.1 mph /  9.8 km/h 6.1 mph /  9.8 km/h 52 % 0.00 in /  0 mm
18:23 32.0 °F /  0 °C 16.3 °F /  -8.7 °C 30.07 in /  1018.2 hPa WNW 5.0 mph /  8 km/h 9.0 mph /  14.5 km/h 52 % 0.00 in /  0 mm
18:28 32.0 °F /  0 °C 16.3 °F /  -8.7 °C 30.07 in /  1018.2 hPa WNW 3.0 mph /  4.8 km/h 9.0 mph /  14.5 km/h 52 % 0.00 in /  0 mm
18:33 32.0 °F /  0 °C 15.9 °F /  -8.9 °C 30.07 in /  1018.2 hPa NW 4.8 mph /  7.7 km/h 5.8 mph /  9.3 km/h 51 % 0.00 in /  0 mm
18:38 32.0 °F /  0 °C 15.9 °F /  -8.9 °C 30.07 in /  1018.2 hPa WNW 6.0 mph /  9.7 km/h 13.0 mph /  20.9 km/h 51 % 0.00 in /  0 mm
18:43 32.0 °F /  0 °C 16.3 °F /  -8.7 °C 30.07 in /  1018.2 hPa NW 3.0 mph /  4.8 km/h 12.0 mph /  19.3 km/h 52 % 0.00 in /  0 mm
18:48 32.0 °F /  0 °C 16.3 °F /  -8.7 °C 30.07 in /  1018.2 hPa NW 2.0 mph /  3.2 km/h 12.0 mph /  19.3 km/h 52 % 0.00 in /  0 mm
18:53 32.0 °F /  0 °C 16.8 °F /  -8.4 °C 30.08 in /  1018.5 hPa WNW 3.0 mph /  4.8 km/h 12.0 mph /  19.3 km/h 53 % 0.00 in /  0 mm
18:58 32.0 °F /  0 °C 16.3 °F /  -8.7 °C 30.08 in /  1018.5 hPa NW 4.5 mph /  7.2 km/h 6.9 mph /  11.1 km/h 52 % 0.00 in /  0 mm
19:03 32.0 °F /  0 °C 16.3 °F /  -8.7 °C 30.08 in /  1018.5 hPa WNW 8.8 mph /  14.2 km/h 13.0 mph /  20.9 km/h 52 % 0.00 in /  0 mm
19:09 32.1 °F /  0.1 °C 16.9 °F /  -8.4 °C 30.08 in /  1018.5 hPa WNW 4.7 mph /  7.6 km/h 11.5 mph /  18.5 km/h 53 % 0.00 in /  0 mm
19:14 32.0 °F /  0 °C 16.3 °F /  -8.7 °C 30.08 in /  1018.5 hPa WSW 5.5 mph /  8.9 km/h 11.5 mph /  18.5 km/h 52 % 0.00 in /  0 mm
19:19 32.0 °F /  0 °C 16.3 °F /  -8.7 °C 30.08 in /  1018.5 hPa WNW 2.1 mph /  3.4 km/h 3.5 mph /  5.6 km/h 52 % 0.00 in /  0 mm
19:24 31.9 °F /  -0.1 °C 15.8 °F /  -9 °C 30.08 in /  1018.5 hPa West 6.9 mph /  11.1 km/h 13.8 mph /  22.2 km/h 51 % 0.00 in /  0 mm
19:29 31.9 °F /  -0.1 °C 15.8 °F /  -9 °C 30.09 in /  1018.8 hPa West 4.1 mph /  6.6 km/h 9.2 mph /  14.8 km/h 51 % 0.00 in /  0 mm
19:30 31.9 °F /  -0.1 °C 16.2 °F /  -8.8 °C 30.09 in /  1018.8 hPa West 6.5 mph /  10.5 km/h 9.0 mph /  14.5 km/h 52 % 0.00 in /  0 mm
19:34 31.9 °F /  -0.1 °C 16.2 °F /  -8.8 °C 30.09 in /  1018.8 hPa NW 4.1 mph /  6.6 km/h 11.5 mph /  18.5 km/h 52 % 0.00 in /  0 mm
19:39 31.8 °F /  -0.1 °C 16.6 °F /  -8.6 °C 30.09 in /  1018.8 hPa WNW 4.5 mph /  7.2 km/h 8.0 mph /  12.9 km/h 53 % 0.00 in /  0 mm
19:44 31.8 °F /  -0.1 °C 15.7 °F /  -9.1 °C 30.09 in /  1018.8 hPa WSW 6.0 mph /  9.7 km/h 9.2 mph /  14.8 km/h 51 % 0.00 in /  0 mm
19:49 31.8 °F /  -0.1 °C 16.2 °F /  -8.8 °C 30.09 in /  1018.8 hPa West 6.5 mph /  10.5 km/h 9.2 mph /  14.8 km/h 52 % 0.00 in /  0 mm
19:54 31.7 °F /  -0.2 °C 16.1 °F /  -8.8 °C 30.09 in /  1018.8 hPa WNW 3.2 mph /  5.1 km/h 10.4 mph /  16.7 km/h 52 % 0.00 in /  0 mm
20:00 31.7 °F /  -0.2 °C 16.1 °F /  -8.8 °C 30.09 in /  1018.8 hPa WNW 2.8 mph /  4.5 km/h 11.5 mph /  18.5 km/h 52 % 0.00 in /  0 mm
20:05 31.6 °F /  -0.2 °C 16.0 °F /  -8.9 °C 30.09 in /  1018.8 hPa West 5.9 mph /  9.5 km/h 9.2 mph /  14.8 km/h 52 % 0.00 in /  0 mm
20:10 31.6 °F /  -0.2 °C 16.0 °F /  -8.9 °C 30.10 in /  1019.2 hPa West 4.3 mph /  6.9 km/h 11.5 mph /  18.5 km/h 52 % 0.00 in /  0 mm
20:15 31.6 °F /  -0.2 °C 16.8 °F /  -8.4 °C 30.10 in /  1019.2 hPa WNW 5.9 mph /  9.5 km/h 11.5 mph /  18.5 km/h 54 % 0.00 in /  0 mm
20:20 31.5 °F /  -0.3 °C 15.9 °F /  -8.9 °C 30.10 in /  1019.2 hPa NW 6.3 mph /  10.1 km/h 13.8 mph /  22.2 km/h 52 % 0.00 in /  0 mm
20:25 31.5 °F /  -0.3 °C 16.3 °F /  -8.7 °C 30.10 in /  1019.2 hPa WNW 5.6 mph /  9 km/h 11.5 mph /  18.5 km/h 53 % 0.00 in /  0 mm
20:30 31.5 °F /  -0.3 °C 17.2 °F /  -8.2 °C 30.10 in /  1019.2 hPa WNW 1.2 mph /  1.9 km/h 3.5 mph /  5.6 km/h 55 % 0.00 in /  0 mm
20:35 31.5 °F /  -0.3 °C 17.2 °F /  -8.2 °C 30.11 in /  1019.5 hPa NW 5.9 mph /  9.5 km/h 10.4 mph /  16.7 km/h 55 % 0.00 in /  0 mm
20:40 31.5 °F /  -0.3 °C 16.3 °F /  -8.7 °C 30.11 in /  1019.5 hPa WSW 4.5 mph /  7.2 km/h 9.2 mph /  14.8 km/h 53 % 0.00 in /  0 mm
20:45 31.4 °F /  -0.3 °C 16.2 °F /  -8.8 °C 30.11 in /  1019.5 hPa West 7.2 mph /  11.6 km/h 11.5 mph /  18.5 km/h 53 % 0.00 in /  0 mm
20:50 31.3 °F /  -0.4 °C 16.1 °F /  -8.8 °C 30.11 in /  1019.5 hPa NNW 6.4 mph /  10.3 km/h 11.5 mph /  18.5 km/h 53 % 0.00 in /  0 mm
20:55 31.3 °F /  -0.4 °C 16.6 °F /  -8.6 °C 30.12 in /  1019.9 hPa WNW 6.6 mph /  10.6 km/h 13.8 mph /  22.2 km/h 54 % 0.00 in /  0 mm
21:00 31.2 °F /  -0.4 °C 16.5 °F /  -8.6 °C 30.11 in /  1019.5 hPa NNW 8.0 mph /  12.9 km/h 17.3 mph /  27.8 km/h 54 % 0.00 in /  0 mm
21:05 31.2 °F /  -0.4 °C 16.9 °F /  -8.4 °C 30.11 in /  1019.5 hPa WSW 6.2 mph /  10 km/h 15.0 mph /  24.1 km/h 55 % 0.00 in /  0 mm
21:11 31.2 °F /  -0.4 °C 16.0 °F /  -8.9 °C 30.11 in /  1019.5 hPa West 5.5 mph /  8.9 km/h 16.1 mph /  25.9 km/h 53 % 0.00 in /  0 mm
21:16 31.1 °F /  -0.5 °C 16.4 °F /  -8.7 °C 30.11 in /  1019.5 hPa WNW 4.8 mph /  7.7 km/h 6.9 mph /  11.1 km/h 54 % 0.00 in /  0 mm
21:21 31.0 °F /  -0.6 °C 16.3 °F /  -8.7 °C 30.11 in /  1019.5 hPa NNW 6.8 mph /  10.9 km/h 13.8 mph /  22.2 km/h 54 % 0.00 in /  0 mm
21:26 31.0 °F /  -0.6 °C 16.7 °F /  -8.5 °C 30.11 in /  1019.5 hPa NW 6.0 mph /  9.7 km/h 12.7 mph /  20.4 km/h 55 % 0.00 in /  0 mm
21:31 30.9 °F /  -0.6 °C 16.6 °F /  -8.6 °C 30.12 in /  1019.9 hPa WNW 8.5 mph /  13.7 km/h 15.0 mph /  24.1 km/h 55 % 0.00 in /  0 mm
21:36 30.8 °F /  -0.7 °C 16.5 °F /  -8.6 °C 30.12 in /  1019.9 hPa WNW 8.0 mph /  12.9 km/h 14.0 mph /  22.5 km/h 55 % 0.00 in /  0 mm
21:41 30.8 °F /  -0.7 °C 16.1 °F /  -8.8 °C 30.12 in /  1019.9 hPa WNW 7.8 mph /  12.6 km/h 16.1 mph /  25.9 km/h 54 % 0.00 in /  0 mm
21:46 30.7 °F /  -0.7 °C 16.0 °F /  -8.9 °C 30.12 in /  1019.9 hPa West 4.8 mph /  7.7 km/h 5.8 mph /  9.3 km/h 54 % 0.00 in /  0 mm
21:51 30.7 °F /  -0.7 °C 16.0 °F /  -8.9 °C 30.12 in /  1019.9 hPa NW 8.4 mph /  13.5 km/h 18.4 mph /  29.6 km/h 54 % 0.00 in /  0 mm
21:56 30.6 °F /  -0.8 °C 16.3 °F /  -8.7 °C 30.13 in /  1020.2 hPa NW 9.6 mph /  15.4 km/h 14.0 mph /  22.5 km/h 55 % 0.00 in /  0 mm
22:01 30.6 °F /  -0.8 °C 16.3 °F /  -8.7 °C 30.13 in /  1020.2 hPa NNW 8.5 mph /  13.7 km/h 13.8 mph /  22.2 km/h 55 % 0.00 in /  0 mm
22:06 30.5 °F /  -0.8 °C 17.1 °F /  -8.3 °C 30.13 in /  1020.2 hPa NNW 4.6 mph /  7.4 km/h 11.5 mph /  18.5 km/h 57 % 0.00 in /  0 mm
22:11 30.4 °F /  -0.9 °C 16.1 °F /  -8.8 °C 30.13 in /  1020.2 hPa NW 9.8 mph /  15.8 km/h 18.4 mph /  29.6 km/h 55 % 0.00 in /  0 mm
22:16 30.3 °F /  -0.9 °C 15.2 °F /  -9.3 °C 30.14 in /  1020.5 hPa WNW 9.9 mph /  15.9 km/h 18.4 mph /  29.6 km/h 53 % 0.00 in /  0 mm
22:21 30.2 °F /  -1 °C 14.7 °F /  -9.6 °C 30.13 in /  1020.2 hPa NNW 5.8 mph /  9.3 km/h 10.4 mph /  16.7 km/h 52 % 0.00 in /  0 mm
22:26 30.1 °F /  -1.1 °C 14.1 °F /  -9.9 °C 30.14 in /  1020.5 hPa NNW 9.1 mph /  14.6 km/h 14.0 mph /  22.5 km/h 51 % 0.00 in /  0 mm
22:31 29.8 °F /  -1.2 °C 12.5 °F /  -10.8 °C 30.14 in /  1020.5 hPa NNW 3.9 mph /  6.3 km/h 9.2 mph /  14.8 km/h 48 % 0.00 in /  0 mm
22:32 29.8 °F /  -1.2 °C 13.4 °F /  -10.3 °C 30.14 in /  1020.5 hPa NNW 6.5 mph /  10.5 km/h 6.9 mph /  11.1 km/h 50 % 0.00 in /  0 mm
22:37 29.7 °F /  -1.3 °C 13.8 °F /  -10.1 °C 30.14 in /  1020.5 hPa NNW 7.1 mph /  11.4 km/h 18.0 mph /  29 km/h 51 % 0.00 in /  0 mm
22:43 29.6 °F /  -1.3 °C 14.1 °F /  -9.9 °C 30.14 in /  1020.5 hPa NW 7.6 mph /  12.2 km/h 12.7 mph /  20.4 km/h 52 % 0.00 in /  0 mm
22:48 29.5 °F /  -1.4 °C 13.6 °F /  -10.2 °C 30.15 in /  1020.9 hPa NNW 5.0 mph /  8 km/h 10.4 mph /  16.7 km/h 51 % 0.00 in /  0 mm
22:53 29.4 °F /  -1.4 °C 13.5 °F /  -10.3 °C 30.15 in /  1020.9 hPa North 8.4 mph /  13.5 km/h 12.7 mph /  20.4 km/h 51 % 0.00 in /  0 mm
22:58 29.3 °F /  -1.5 °C 13.8 °F /  -10.1 °C 30.15 in /  1020.9 hPa NW 6.3 mph /  10.1 km/h 12.7 mph /  20.4 km/h 52 % 0.00 in /  0 mm
23:03 29.2 °F /  -1.6 °C 14.2 °F /  -9.9 °C 30.15 in /  1020.9 hPa NW 6.1 mph /  9.8 km/h 11.5 mph /  18.5 km/h 53 % 0.00 in /  0 mm
23:08 29.1 °F /  -1.6 °C 14.9 °F /  -9.5 °C 30.15 in /  1020.9 hPa North 8.5 mph /  13.7 km/h 19.6 mph /  31.5 km/h 55 % 0.00 in /  0 mm
23:13 29.0 °F /  -1.7 °C 14.8 °F /  -9.6 °C 30.15 in /  1020.9 hPa NNW 7.9 mph /  12.7 km/h 16.0 mph /  25.7 km/h 55 % 0.00 in /  0 mm
23:18 28.9 °F /  -1.7 °C 14.7 °F /  -9.6 °C 30.16 in /  1021.2 hPa NW 7.2 mph /  11.6 km/h 9.2 mph /  14.8 km/h 55 % 0.00 in /  0 mm
23:23 28.7 °F /  -1.8 °C 14.1 °F /  -9.9 °C 30.16 in /  1021.2 hPa NNW 4.7 mph /  7.6 km/h 9.2 mph /  14.8 km/h 54 % 0.00 in /  0 mm
23:28 28.6 °F /  -1.9 °C 14.9 °F /  -9.5 °C 30.16 in /  1021.2 hPa North 6.5 mph /  10.5 km/h 16.1 mph /  25.9 km/h 56 % 0.00 in /  0 mm
23:33 28.5 °F /  -1.9 °C 14.4 °F /  -9.8 °C 30.16 in /  1021.2 hPa NNW 7.7 mph /  12.4 km/h 11.0 mph /  17.7 km/h 55 % 0.00 in /  0 mm
23:38 28.3 °F /  -2.1 °C 14.6 °F /  -9.7 °C 30.16 in /  1021.2 hPa WNW 6.4 mph /  10.3 km/h 13.8 mph /  22.2 km/h 56 % 0.00 in /  0 mm
23:41 28.3 °F /  -2.1 °C 14.6 °F /  -9.7 °C 30.16 in /  1021.2 hPa NW 8.4 mph /  13.5 km/h 15.0 mph /  24.1 km/h 56 % 0.00 in /  0 mm
23:46 28.2 °F /  -2.1 °C 14.9 °F /  -9.5 °C 30.17 in /  1021.6 hPa NW 10.6 mph /  17.1 km/h 20.7 mph /  33.3 km/h 57 % 0.00 in /  0 mm
23:51 28.0 °F /  -2.2 °C 13.5 °F /  -10.3 °C 30.17 in /  1021.6 hPa NNW 10.7 mph /  17.2 km/h 19.6 mph /  31.5 km/h 54 % 0.00 in /  0 mm
23:56 27.8 °F /  -2.3 °C 12.9 °F /  -10.6 °C 30.17 in /  1021.6 hPa NW 12.6 mph /  20.3 km/h 25.3 mph /  40.7 km/h 53 % 0.00 in /  0 mm
Crab Meadow Weather
Compliments of Weather Underground - 3 mb

Script developed by  Jim McMurry - jmcmurry@mwt.net Adapted for the template by  Wim van der Kuil - Leuven-Template.eu

Astronomy: Pluto is not a planet, because it does not have a fixed orbit and it's orbit comes in between the orbit of another planet (Neptune).